Time;durP1;ratioP1;P1;durP2;ratioP2;P2;SDS_P1;SDS_P2;PMS_P1;PMS_P2;Temp;Humidity;BMP_temperature;BMP_pressure;BME280_temperature;BME280_humidity;BME280_pressure;Samples;Min_cycle;Max_cycle;Signal;HPM_P1;HPM_P2
2020/12/08 00:00:32;;;;;;;6.57;5.20;;;;;;;7.25;89.72;98494.38;4850419;29;20094;-82
2020/12/08 00:02:57;;;;;;;8.73;5.43;;;;;;;7.29;89.85;98504.22;4851052;29;20411;-81
2020/12/08 00:05:28;;;;;;;7.05;4.18;;;;;;;7.34;90.10;98498.09;4862342;29;20420;-82
2020/12/08 00:07:53;;;;;;;5.88;3.78;;;;;;;7.37;89.42;98497.53;4865901;29;20071;-81
2020/12/08 00:10:19;;;;;;;5.30;3.88;;;;;;;7.39;89.22;98495.44;4863781;29;20063;-81
2020/12/08 00:12:49;;;;;;;8.88;3.78;;;;;;;7.40;88.90;98502.34;4863943;29;20021;-80
2020/12/08 00:15:16;;;;;;;7.18;4.03;;;;;;;7.43;88.97;98503.66;4845221;29;20050;-80
2020/12/08 00:17:43;;;;;;;5.53;4.30;;;;;;;7.43;88.42;98517.75;4845647;29;20128;-79
2020/12/08 00:20:09;;;;;;;3.88;3.28;;;;;;;7.43;88.62;98511.66;4860479;29;20119;-79
2020/12/08 00:22:35;;;;;;;5.35;3.20;;;;;;;7.46;88.48;98521.78;4861968;29;20120;-81
2020/12/08 00:25:34;;;;;;;6.65;3.42;;;;;;;7.49;88.41;98522.00;4878697;29;20061;-83
2020/12/08 00:28:04;;;;;;;6.88;3.78;;;;;;;7.52;88.11;98526.03;4883750;29;20507;-81
2020/12/08 00:30:51;;;;;;;3.38;2.92;;;;;;;7.55;88.23;98530.78;4879814;29;20052;-83
2020/12/08 00:33:17;;;;;;;4.43;3.03;;;;;;;7.58;88.27;98529.44;4872824;29;20029;-80
2020/12/08 00:35:43;;;;;;;5.40;2.78;;;;;;;7.59;88.05;98521.22;4865088;29;20530;-81
2020/12/08 00:38:08;;;;;;;5.72;3.22;;;;;;;7.60;88.25;98527.31;4864334;29;20128;-80
2020/12/08 00:40:35;;;;;;;4.72;3.22;;;;;;;7.63;87.84;98530.25;4865190;29;20041;-81
2020/12/08 00:43:01;;;;;;;5.47;2.83;;;;;;;7.62;87.70;98523.31;4849467;29;20033;-81
2020/12/08 00:46:23;;;;;;;3.35;2.40;;;;;;;7.63;87.32;98526.78;4866420;29;20036;-82
2020/12/08 00:49:09;;;;;;;3.58;2.58;;;;;;;7.62;87.13;98527.88;4795091;29;20047;-82
2020/12/08 00:51:35;;;;;;;4.30;2.30;;;;;;;7.61;87.67;98534.25;4792655;29;20033;-81
2020/12/08 00:54:11;;;;;;;5.65;3.05;;;;;;;7.62;87.11;98526.00;4864866;29;20487;-81
2020/12/08 01:02:18;;;;;;;2.42;1.70;;;;;;;7.58;87.40;98518.81;4999915;23;20133;-79
2020/12/08 01:04:44;;;;;;;2.00;1.80;;;;;;;7.57;87.10;98514.53;4863285;29;20041;-79
2020/12/08 01:07:11;;;;;;;2.10;1.73;;;;;;;7.57;87.61;98523.34;4863105;29;20495;-78
2020/12/08 01:09:36;;;;;;;1.58;1.45;;;;;;;7.56;87.13;98524.41;4863565;29;20021;-78
2020/12/08 01:12:02;;;;;;;1.30;1.20;;;;;;;7.56;87.20;98524.41;4880108;29;20029;-78
2020/12/08 01:14:28;;;;;;;2.42;1.77;;;;;;;7.59;87.56;98528.38;4862394;29;20029;-77
2020/12/08 01:16:57;;;;;;;1.95;1.63;;;;;;;7.55;87.03;98516.69;4856207;29;20030;-77
2020/12/08 01:19:23;;;;;;;2.70;2.28;;;;;;;7.57;87.46;98533.16;4869117;29;20289;-77
2020/12/08 01:21:53;;;;;;;2.42;2.03;;;;;;;7.56;87.22;98523.63;4862747;29;20490;-77
2020/12/08 01:24:19;;;;;;;2.67;2.13;;;;;;;7.58;87.55;98516.16;4879948;29;20036;-78
2020/12/08 01:26:45;;;;;;;3.53;2.42;;;;;;;7.57;87.39;98517.22;4863191;29;20124;-77
2020/12/08 01:29:10;;;;;;;2.58;1.92;;;;;;;7.60;87.28;98516.69;4863170;29;20111;-78
2020/12/08 01:31:36;;;;;;;3.08;1.60;;;;;;;7.61;87.27;98515.63;4862929;29;20119;-79
2020/12/08 01:34:01;;;;;;;2.75;2.13;;;;;;;7.62;87.17;98514.56;4861253;29;20055;-78
2020/12/08 01:36:27;;;;;;;2.53;2.22;;;;;;;7.63;86.82;98516.94;4862642;29;20024;-77
2020/12/08 01:38:52;;;;;;;1.90;1.70;;;;;;;7.65;86.88;98519.31;4845416;29;20097;-78
2020/12/08 01:41:18;;;;;;;3.08;2.40;;;;;;;7.65;86.93;98517.47;4864993;29;20036;-77
2020/12/08 01:43:51;;;;;;;4.95;2.85;;;;;;;7.66;86.41;98521.72;4855454;29;20054;-78
2020/12/08 01:46:20;;;;;;;3.50;2.13;;;;;;;7.66;86.85;98519.03;4862158;29;20037;-78
2020/12/08 01:48:49;;;;;;;;;;;;;;;7.67;86.62;98520.66;4861621;29;20061;-78
2020/12/08 01:51:19;;;;;;;3.42;2.33;;;;;;;7.65;86.50;98519.31;4854495;29;20003;-78
2020/12/08 01:53:46;;;;;;;6.03;3.35;;;;;;;7.66;86.57;98519.03;4862261;29;20037;-78
2020/12/08 02:02:05;;;;;;;4.82;3.50;;;;;;;7.63;86.61;98524.94;5308952;23;20067;-78
2020/12/08 02:04:31;;;;;;;4.82;3.50;;;;;;;7.62;86.46;98527.88;4855292;29;20045;-79
2020/12/08 02:06:57;;;;;;;3.92;3.13;;;;;;;7.62;86.98;98526.00;4844051;29;20029;-79
2020/12/08 02:09:22;;;;;;;5.00;3.55;;;;;;;7.63;86.54;98524.94;4844322;29;20106;-79
2020/12/08 02:14:31;;;;;;;4.70;2.85;;;;;;;7.54;86.77;98521.19;5189579;23;20502;-77
2020/12/08 02:16:57;;;;;;;3.30;2.80;;;;;;;7.57;86.40;98530.50;4862748;29;20045;-76
2020/12/08 02:19:22;;;;;;;7.22;3.58;;;;;;;7.57;86.37;98527.84;4855588;29;20052;-79
2020/12/08 02:21:48;;;;;;;5.85;4.10;;;;;;;7.56;86.91;98528.94;4814861;29;20053;-78
2020/12/08 02:24:16;;;;;;;7.35;5.15;;;;;;;7.51;86.59;98527.88;4843700;29;20031;-78
2020/12/08 02:26:42;;;;;;;;;;;;;;;7.48;86.86;98531.06;4844141;29;20420;-79
2020/12/08 02:29:07;;;;;;;6.28;4.15;;;;;;;7.45;86.96;98539.56;4843819;29;19916;-78
2020/12/08 02:36:40;;;;;;;4.63;3.22;;;;;;;7.37;87.05;98538.25;4822149;29;20111;-77
2020/12/08 02:39:06;;;;;;;6.80;4.22;;;;;;;7.38;87.30;98541.72;4807764;29;20030;-77
2020/12/08 02:41:31;;;;;;;5.85;3.80;;;;;;;7.39;87.45;98540.66;4807140;29;20121;-77
2020/12/08 02:43:56;;;;;;;7.13;4.95;;;;;;;7.39;87.40;98543.31;4811940;29;20453;-78
2020/12/08 02:46:22;;;;;;;5.47;3.67;;;;;;;7.41;87.11;98537.72;4825349;29;20056;-78
2020/12/08 02:48:48;;;;;;;6.05;4.00;;;;;;;7.41;87.16;98535.88;4822906;29;20074;-77
2020/12/08 02:51:20;;;;;;;4.00;3.60;;;;;;;7.40;86.69;98536.94;4807651;29;20095;-78
2020/12/08 02:53:45;;;;;;;5.10;3.70;;;;;;;7.42;86.75;98549.94;4806962;29;20038;-78
2020/12/08 02:56:11;;;;;;;4.18;3.03;;;;;;;7.42;86.67;98547.28;4807354;29;20041;-78
2020/12/08 02:58:36;;;;;;;8.43;4.22;;;;;;;7.40;86.63;98539.59;4806701;29;20397;-77
2020/12/08 03:01:03;;;;;;;5.30;3.90;;;;;;;7.42;87.49;98547.28;4807861;29;20480;-77
2020/12/08 03:03:28;;;;;;;8.88;5.10;;;;;;;7.42;86.86;98553.44;4806999;29;20034;-77
2020/12/08 03:05:54;;;;;;;8.45;4.22;;;;;;;7.42;87.23;98549.94;4806248;29;20049;-76
2020/12/08 03:08:19;;;;;;;9.15;4.38;;;;;;;7.44;86.99;98548.63;4822236;29;20035;-77
2020/12/08 03:10:44;;;;;;;8.88;4.63;;;;;;;7.49;87.27;98561.13;4823015;29;20508;-78
2020/12/08 03:13:11;;;;;;;12.15;6.35;;;;;;;7.47;86.89;98561.41;4810739;29;20087;-78
2020/12/08 03:15:36;;;;;;;7.28;4.55;;;;;;;7.50;86.95;98560.84;4824574;29;20037;-77
2020/12/08 03:18:02;;;;;;;9.73;4.47;;;;;;;7.49;86.57;98567.22;4824617;29;20034;-76
2020/12/08 03:20:27;;;;;;;8.80;4.20;;;;;;;7.50;86.73;98570.72;4808644;29;20034;-76
2020/12/08 03:22:52;;;;;;;8.18;4.75;;;;;;;7.51;86.63;98578.41;4806520;29;20038;-78
2020/12/08 03:25:18;;;;;;;8.55;4.97;;;;;;;7.49;86.77;98583.19;4806325;29;20131;-78
2020/12/08 03:27:43;;;;;;;10.05;5.25;;;;;;;7.50;87.00;98576.81;4806643;29;20038;-78
2020/12/08 03:30:08;;;;;;;9.57;5.57;;;;;;;7.52;86.73;98587.22;4816869;29;20102;-78
2020/12/08 03:32:34;;;;;;;7.82;5.43;;;;;;;7.53;86.49;98592.25;4824575;29;20042;-78
2020/12/08 03:34:59;;;;;;;6.43;4.25;;;;;;;7.54;86.29;98585.06;4811137;29;20050;-78
2020/12/08 03:37:25;;;;;;;8.27;5.18;;;;;;;7.52;86.79;98585.34;4807810;29;20042;-78
2020/12/08 03:39:53;;;;;;;8.43;4.60;;;;;;;7.51;86.20;98594.38;4806923;29;20073;-80
2020/12/08 03:42:18;;;;;;;8.45;4.93;;;;;;;7.51;86.47;98589.06;4815967;29;20034;-78
2020/12/08 03:44:44;;;;;;;5.70;4.20;;;;;;;7.52;86.33;98593.31;4814164;29;20489;-78
2020/12/08 03:47:09;;;;;;;8.23;5.30;;;;;;;7.52;86.39;98603.97;4809232;29;20030;-77
2020/12/08 03:49:35;;;;;;;8.77;5.95;;;;;;;7.51;86.25;98605.03;4809507;29;20041;-77
2020/12/08 03:52:01;;;;;;;10.63;6.57;;;;;;;7.50;86.10;98603.44;4795945;29;20497;-80
2020/12/08 03:54:27;;;;;;;12.50;6.10;;;;;;;7.51;85.92;98618.34;4807530;29;20070;-78
2020/12/08 03:56:52;;;;;;;12.77;6.85;;;;;;;7.49;86.04;98619.66;4805585;29;20500;-78
2020/12/08 03:59:18;;;;;;;12.52;6.97;;;;;;;7.49;85.95;98627.66;4813391;29;20065;-78
2020/12/08 04:01:51;;;;;;;14.43;7.93;;;;;;;7.49;86.56;98625.78;4808615;29;20034;-77
2020/12/08 04:04:19;;;;;;;15.73;7.13;;;;;;;7.45;86.04;98622.06;4803822;29;20031;-77
2020/12/08 04:06:46;;;;;;;13.68;7.15;;;;;;;7.47;86.07;98630.59;4790961;29;20479;-77
2020/12/08 04:09:11;;;;;;;13.48;7.93;;;;;;;7.43;85.46;98618.84;4792939;29;20493;-77
2020/12/08 04:11:37;;;;;;;10.10;5.70;;;;;;;7.44;85.65;98631.09;4824457;29;20042;-77
2020/12/08 04:14:03;;;;;;;14.55;7.50;;;;;;;7.43;86.01;98626.84;4811078;29;20500;-78
2020/12/08 04:16:29;;;;;;;13.05;7.00;;;;;;;7.43;85.92;98631.38;4808742;29;20113;-78
2020/12/08 04:18:55;;;;;;;11.80;6.85;;;;;;;7.39;86.07;98631.09;4815473;29;20045;-80
2020/12/08 04:21:25;;;;;;;11.02;5.55;;;;;;;7.40;86.05;98638.03;4812037;29;20039;-80
2020/12/08 04:24:02;;;;;;;11.15;5.90;;;;;;;7.37;85.82;98639.34;4812708;29;20027;-79
2020/12/08 04:26:30;;;;;;;10.05;4.95;;;;;;;7.35;85.18;98638.03;4815858;29;20037;-79
2020/12/08 04:28:55;;;;;;;8.68;4.75;;;;;;;7.32;85.39;98646.53;4810702;29;20030;-79
2020/12/08 04:31:21;;;;;;;9.85;5.07;;;;;;;7.31;85.63;98642.25;4810138;29;20141;-79
2020/12/08 04:33:46;;;;;;;8.48;5.38;;;;;;;7.29;85.40;98642.53;4807219;29;20145;-78
2020/12/08 04:36:17;;;;;;;7.32;4.88;;;;;;;7.30;85.68;98648.63;4809738;29;20226;-77
2020/12/08 04:38:43;;;;;;;9.60;4.93;;;;;;;7.27;85.64;98654.50;4809178;29;20481;-77
2020/12/08 04:41:17;;;;;;;6.82;4.18;;;;;;;7.29;85.61;98647.84;4825487;29;20042;-77
2020/12/08 04:43:44;;;;;;;6.80;3.63;;;;;;;7.30;85.51;98651.28;4815231;29;20072;-76
2020/12/08 04:46:09;;;;;;;8.23;4.00;;;;;;;7.30;84.72;98653.94;4824150;29;20033;-78
2020/12/08 04:48:36;;;;;;;6.38;3.28;;;;;;;7.31;84.92;98652.91;4819981;29;20034;-78
2020/12/08 04:51:02;;;;;;;7.70;3.92;;;;;;;7.30;84.94;98652.09;4824917;29;20069;-77
2020/12/08 04:53:28;;;;;;;5.85;3.30;;;;;;;7.31;85.14;98651.06;4825150;29;20026;-78
2020/12/08 04:55:54;;;;;;;4.38;3.22;;;;;;;7.29;85.10;98652.38;4809365;29;20041;-79
2020/12/08 04:58:19;;;;;;;5.80;3.35;;;;;;;7.31;85.11;98647.56;4826795;29;20038;-78
2020/12/08 05:00:45;;;;;;;5.82;3.15;;;;;;;7.32;84.60;98654.50;4815729;29;20484;-78
2020/12/08 05:03:11;;;;;;;4.38;3.35;;;;;;;7.29;84.51;98652.38;4808967;29;20135;-78
2020/12/08 05:05:41;;;;;;;5.93;3.65;;;;;;;7.30;84.49;98645.97;4841078;29;20036;-79
2020/12/08 05:08:11;;;;;;;5.25;2.90;;;;;;;7.29;84.32;98650.50;4826894;29;20037;-79
2020/12/08 05:10:37;;;;;;;5.43;3.40;;;;;;;7.28;83.90;98650.78;4821764;29;20031;-79
2020/12/08 05:13:05;;;;;;;10.02;4.00;;;;;;;7.27;84.28;98655.28;4807924;29;20566;-79
2020/12/08 05:15:30;;;;;;;6.88;3.92;;;;;;;7.27;83.73;98660.59;4808325;29;20417;-79
2020/12/08 05:18:10;;;;;;;7.80;3.53;;;;;;;7.23;83.49;98667.53;4809187;29;20045;-80
2020/12/08 05:20:36;;;;;;;9.88;6.70;;;;;;;7.19;83.47;98666.47;4798700;29;20042;-80
2020/12/08 05:23:01;;;;;;;10.27;6.70;;;;;;;7.16;83.74;98667.75;4808788;29;20038;-80
2020/12/08 05:25:29;;;;;;;10.48;5.25;;;;;;;7.13;83.34;98672.81;4813652;29;20133;-79
2020/12/08 05:27:56;;;;;;;8.82;6.55;;;;;;;7.07;84.02;98669.34;4815158;29;20121;-76
2020/12/08 05:30:23;;;;;;;13.13;7.82;;;;;;;7.04;83.86;98670.69;4807668;29;20057;-76
2020/12/08 05:32:49;;;;;;;10.88;7.40;;;;;;;7.03;84.20;98668.25;4808496;29;20118;-79
2020/12/08 05:35:36;;;;;;;9.98;6.10;;;;;;;7.04;84.24;98669.84;4811854;29;20279;-82
2020/12/08 05:38:03;;;;;;;10.77;6.28;;;;;;;7.03;83.86;98673.56;4811267;29;20046;-82
2020/12/08 05:40:29;;;;;;;8.88;5.88;;;;;;;7.02;83.90;98683.41;4808841;29;20115;-80
2020/12/08 05:42:54;;;;;;;10.30;6.85;;;;;;;7.03;83.65;98676.22;4809921;29;20092;-80
2020/12/08 05:45:21;;;;;;;15.32;6.95;;;;;;;7.04;83.40;98683.97;4811170;29;20037;-81
2020/12/08 05:47:50;;;;;;;17.35;8.43;;;;;;;7.01;83.01;98684.47;4810749;29;20034;-79
2020/12/08 05:50:21;;;;;;;21.63;11.98;;;;;;;7.01;83.40;98689.00;4811148;29;20496;-80
2020/12/08 05:52:58;;;;;;;15.88;10.55;;;;;;;7.00;82.96;98687.41;4811532;29;20062;-81
2020/12/08 05:55:25;;;;;;;15.65;10.20;;;;;;;6.99;83.40;98691.91;4808849;29;20476;-78
2020/12/08 05:57:52;;;;;;;15.90;10.15;;;;;;;6.98;83.06;98694.84;4808224;29;20495;-76
2020/12/08 06:00:28;;;;;;;13.23;7.43;;;;;;;6.95;83.19;98696.16;4808452;29;20036;-77
2020/12/08 06:03:13;;;;;;;11.63;7.25;;;;;;;6.97;82.80;98701.19;4824991;29;20077;-77
2020/12/08 06:05:40;;;;;;;14.13;8.73;;;;;;;6.97;83.40;98710.00;4808600;29;20095;-77
2020/12/08 06:08:20;;;;;;;12.93;8.00;;;;;;;6.96;82.70;98711.06;4808435;29;20026;-77
2020/12/08 06:10:49;;;;;;;19.63;9.27;;;;;;;6.97;83.28;98709.19;4825343;29;20103;-78
2020/12/08 06:13:32;;;;;;;22.13;12.98;;;;;;;6.97;83.39;98714.50;4808911;29;20580;-77
2020/12/08 06:15:59;;;;;;;24.40;12.27;;;;;;;6.96;82.88;98719.03;4808451;29;20031;-77
2020/12/08 06:18:38;;;;;;;19.33;12.95;;;;;;;6.96;82.98;98721.69;4808638;29;20097;-77
2020/12/08 06:21:26;;;;;;;29.77;13.52;;;;;;;6.98;83.39;98721.41;4807852;29;20501;-77
2020/12/08 06:23:53;;;;;;;18.33;11.55;;;;;;;7.03;83.57;98718.78;4807549;29;20038;-79
2020/12/08 06:26:27;;;;;;;43.78;23.75;;;;;;;7.04;83.43;98723.84;4807825;29;20217;-78
2020/12/08 06:28:53;;;;;;;31.98;18.02;;;;;;;7.07;83.12;98724.38;4807510;29;20124;-78
2020/12/08 06:31:19;;;;;;;23.38;13.02;;;;;;;7.16;83.89;98722.81;4811080;29;20620;-78
2020/12/08 06:33:52;;;;;;;41.47;20.25;;;;;;;7.27;84.33;98718.34;4812094;29;20121;-79
2020/12/08 06:36:19;;;;;;;24.98;14.43;;;;;;;7.33;84.45;98714.63;4824274;29;20186;-78
2020/12/08 06:38:58;;;;;;;17.88;10.05;;;;;;;7.42;83.62;98718.38;4821271;29;20030;-77
2020/12/08 06:41:49;;;;;;;13.80;8.52;;;;;;;7.57;84.19;98716.78;4822925;29;20061;-78
2020/12/08 06:44:19;;;;;;;11.63;6.53;;;;;;;7.67;83.77;98716.81;4810256;29;20056;-78
2020/12/08 06:47:01;;;;;;;8.45;5.78;;;;;;;7.77;83.13;98721.34;4823329;29;20480;-78
2020/12/08 06:49:33;;;;;;;9.77;5.75;;;;;;;7.87;83.41;98721.34;4823914;29;20045;-78
2020/12/08 06:51:59;;;;;;;7.90;4.97;;;;;;;7.97;82.84;98721.34;4824079;29;20037;-79
2020/12/08 06:54:25;;;;;;;9.30;5.53;;;;;;;8.09;82.44;98728.28;4823645;29;20040;-79
2020/12/08 06:56:50;;;;;;;10.60;5.90;;;;;;;8.15;82.10;98716.53;4812234;29;20071;-79
2020/12/08 06:59:26;;;;;;;11.50;5.78;;;;;;;8.24;82.35;98724.78;4816094;29;20401;-78
2020/12/08 07:01:53;;;;;;;14.15;8.07;;;;;;;8.33;81.51;98728.53;4816516;29;20034;-78
2020/12/08 07:04:20;;;;;;;17.50;9.02;;;;;;;8.40;80.87;98729.03;4806102;29;20026;-78
2020/12/08 07:06:46;;;;;;;14.02;8.90;;;;;;;8.46;80.79;98722.66;4810641;29;20034;-78
2020/12/08 07:09:11;;;;;;;11.50;6.78;;;;;;;8.57;81.16;98727.97;4823907;29;20085;-78
2020/12/08 07:11:37;;;;;;;14.77;7.72;;;;;;;8.65;80.93;98730.09;4823604;29;20037;-78
2020/12/08 07:14:07;;;;;;;14.57;7.30;;;;;;;8.70;80.51;98732.72;4823393;29;20041;-78
2020/12/08 07:16:34;;;;;;;12.68;6.95;;;;;;;8.78;81.31;98732.19;4826246;29;20041;-81
2020/12/08 07:19:01;;;;;;;20.63;12.15;;;;;;;8.89;81.22;98738.28;4817464;29;20420;-81
2020/12/08 07:21:26;;;;;;;16.92;9.93;;;;;;;8.96;80.44;98733.44;4809128;29;20026;-81
2020/12/08 07:23:53;;;;;;;12.40;8.75;;;;;;;9.05;80.28;98741.69;4821822;29;20041;-81
2020/12/08 07:26:24;;;;;;;11.10;6.75;;;;;;;9.12;80.10;98731.50;4823001;29;20041;-81
2020/12/08 07:28:50;;;;;;;33.13;19.40;;;;;;;9.19;79.75;98725.91;4813975;29;20038;-83
2020/12/08 07:31:28;;;;;;;46.20;26.88;;;;;;;9.24;79.23;98728.53;4824614;29;20061;-81
2020/12/08 07:33:54;;;;;;;14.02;6.30;;;;;;;9.33;79.74;98730.63;4820098;29;20118;-82
2020/12/08 07:36:30;;;;;;;9.73;5.00;;;;;;;9.40;78.56;98731.91;4821843;29;20136;-82
2020/12/08 07:38:57;;;;;;;6.82;4.47;;;;;;;9.49;78.44;98740.13;4821433;29;20046;-78
2020/12/08 07:41:24;;;;;;;7.05;3.50;;;;;;;9.56;77.89;98732.63;4810118;29;20042;-79
2020/12/08 07:43:50;;;;;;;7.55;4.05;;;;;;;9.67;78.19;98736.03;4811773;29;20706;-79
2020/12/08 07:46:31;;;;;;;6.25;3.28;;;;;;;9.73;76.84;98750.16;4807829;29;20034;-79
2020/12/08 07:49:02;;;;;;;4.43;3.08;;;;;;;9.78;75.68;98739.44;4818936;29;20042;-80
2020/12/08 07:51:29;;;;;;;4.40;2.72;;;;;;;9.80;75.47;98742.59;4807539;29;20026;-79
2020/12/08 07:53:55;;;;;;;5.28;2.65;;;;;;;9.82;76.00;98740.47;4808136;29;20035;-80
2020/12/08 07:56:28;;;;;;;3.90;2.65;;;;;;;9.85;75.73;98739.91;4808315;29;20036;-79
2020/12/08 07:58:53;;;;;;;3.05;2.53;;;;;;;9.90;75.43;98741.75;4807808;29;20113;-79
2020/12/08 08:01:19;;;;;;;3.05;2.45;;;;;;;9.87;74.83;98739.63;4808246;29;20059;-79
2020/12/08 08:03:45;;;;;;;5.47;3.90;;;;;;;9.90;76.01;98741.75;4807227;29;20312;-80
2020/12/08 08:06:19;;;;;;;5.40;2.90;;;;;;;9.90;75.21;98747.88;4807694;29;20538;-81
2020/12/08 08:08:46;;;;;;;4.93;2.50;;;;;;;9.91;75.79;98756.69;4807925;29;20054;-81
2020/12/08 08:11:11;;;;;;;3.60;2.20;;;;;;;9.90;75.36;98755.09;4808041;29;20034;-82
2020/12/08 08:13:37;;;;;;;4.40;2.63;;;;;;;9.93;75.51;98752.66;4808489;29;20037;-80
2020/12/08 08:16:02;;;;;;;3.47;2.20;;;;;;;9.91;75.04;98757.50;4807847;29;20055;-80
2020/12/08 08:18:31;;;;;;;3.55;2.13;;;;;;;9.94;75.60;98758.81;4808241;29;20036;-79
2020/12/08 08:20:58;;;;;;;3.95;2.42;;;;;;;10.00;76.17;98764.91;4808310;29;20032;-80
2020/12/08 08:23:24;;;;;;;6.32;3.05;;;;;;;10.03;75.05;98765.16;4808250;29;20069;-80
2020/12/08 08:25:49;;;;;;;5.28;2.95;;;;;;;10.01;74.54;98771.84;4823029;29;20415;-78
2020/12/08 08:28:15;;;;;;;5.03;2.70;;;;;;;10.06;74.69;98769.16;4817985;29;20481;-77
2020/12/08 08:30:40;;;;;;;2.22;1.92;;;;;;;10.04;74.80;98769.41;4807552;29;20036;-76
2020/12/08 08:33:05;;;;;;;2.90;1.73;;;;;;;10.08;74.27;98777.66;4834604;29;20034;-79
2020/12/08 08:35:31;;;;;;;2.67;1.83;;;;;;;10.10;74.53;98781.66;4825421;29;20050;-79
2020/12/08 08:37:58;;;;;;;2.95;1.48;;;;;;;10.16;74.78;98782.41;4826139;29;20046;-81
2020/12/08 08:40:24;;;;;;;3.63;2.25;;;;;;;10.18;74.46;98782.13;4824243;29;20042;-83
2020/12/08 08:42:49;;;;;;;1.90;1.65;;;;;;;10.24;74.36;98786.34;4825768;29;20049;-84
2020/12/08 08:45:14;;;;;;;3.45;2.53;;;;;;;10.28;74.25;98783.91;4826016;29;20037;-86
2020/12/08 08:47:41;;;;;;;2.83;1.63;;;;;;;10.25;73.40;98775.41;4825657;29;20115;-87
2020/12/08 08:50:06;;;;;;;3.75;2.13;;;;;;;10.26;73.38;98784.22;4825967;29;20034;-88
2020/12/08 08:52:32;;;;;;;3.25;2.00;;;;;;;10.31;74.00;98786.84;4825627;29;20034;-82
2020/12/08 08:54:58;;;;;;;5.90;3.63;;;;;;;10.32;73.23;98788.44;4825871;29;20038;-86
2020/12/08 08:57:23;;;;;;;34.53;16.25;;;;;;;10.33;72.66;98784.69;4798703;29;20042;-85
2020/12/08 08:59:49;;;;;;;168.25;61.60;;;;;;;10.35;73.23;98781.72;4803992;29;20052;-85
2020/12/08 09:02:14;;;;;;;30.13;13.82;;;;;;;10.32;72.48;98775.06;4823886;29;20041;-85
2020/12/08 09:04:40;;;;;;;11.95;6.90;;;;;;;10.37;72.76;98777.72;4813332;29;20462;-86
2020/12/08 09:07:05;;;;;;;17.88;9.00;;;;;;;10.41;72.81;98775.28;4806539;29;20034;-86
2020/12/08 09:09:31;;;;;;;15.45;8.45;;;;;;;10.46;72.42;98769.09;4814950;29;20037;-85
2020/12/08 09:11:56;;;;;;;6.13;4.15;;;;;;;10.50;71.72;98770.16;4805517;29;20038;-85
2020/12/08 09:14:23;;;;;;;11.10;5.35;;;;;;;10.53;70.04;98772.25;4807061;29;20038;-85
2020/12/08 09:16:48;;;;;;;7.13;3.65;;;;;;;10.52;69.91;98776.81;4806294;29;20076;-85
2020/12/08 09:19:14;;;;;;;11.48;5.68;;;;;;;10.53;69.99;98773.06;4806240;29;20069;-86
2020/12/08 09:21:39;;;;;;;5.70;3.05;;;;;;;10.54;69.34;98771.16;4806199;29;20045;-85
2020/12/08 09:24:05;;;;;;;5.70;2.55;;;;;;;10.54;70.04;98763.94;4806318;29;20038;-85
2020/12/08 09:26:30;;;;;;;1.50;1.40;;;;;;;10.55;69.47;98760.19;4805172;29;20034;-78
2020/12/08 09:28:56;;;;;;;2.78;1.30;;;;;;;10.57;69.82;98768.72;4821634;29;20495;-86
2020/12/08 09:31:21;;;;;;;3.83;2.10;;;;;;;10.61;70.42;98768.97;4806509;29;20095;-85
2020/12/08 09:33:51;;;;;;;3.40;1.75;;;;;;;10.64;69.21;98768.38;4806037;29;20034;-86
2020/12/08 09:36:17;;;;;;;2.17;1.20;;;;;;;10.67;69.50;98765.16;4810119;29;20052;-84
2020/12/08 09:38:42;;;;;;;1.95;1.42;;;;;;;10.66;69.30;98760.88;4823103;29;20404;-86
2020/12/08 09:41:08;;;;;;;2.63;1.63;;;;;;;10.68;68.93;98761.41;4813086;29;20045;-86
2020/12/08 09:43:33;;;;;;;1.77;1.50;;;;;;;10.65;69.01;98753.16;4804861;29;20622;-85
2020/12/08 09:45:59;;;;;;;2.25;1.50;;;;;;;10.72;68.67;98767.75;4808546;29;20070;-85
2020/12/08 09:48:24;;;;;;;1.90;1.50;;;;;;;10.72;67.54;98758.97;4809955;29;20432;-87
2020/12/08 09:50:50;;;;;;;1.77;1.30;;;;;;;10.75;68.41;98757.59;4813310;29;20038;-82
2020/12/08 09:53:15;;;;;;;1.92;1.52;;;;;;;10.76;67.64;98762.66;4819889;29;20042;-84
2020/12/08 09:55:43;;;;;;;1.73;1.30;;;;;;;10.73;67.99;98764.00;4799265;29;20033;-83
2020/12/08 09:58:09;;;;;;;4.22;1.58;;;;;;;10.78;68.88;98760.50;4809132;29;20030;-84
2020/12/08 10:00:34;;;;;;;2.13;1.55;;;;;;;10.81;66.82;98759.91;4805229;29;20119;-84
2020/12/08 10:03:00;;;;;;;2.20;1.13;;;;;;;10.85;67.37;98752.13;4823876;29;20029;-82
2020/12/08 10:05:25;;;;;;;2.78;1.70;;;;;;;10.88;68.16;98759.59;4821247;29;20042;-84
2020/12/08 10:07:51;;;;;;;2.05;1.27;;;;;;;10.89;68.06;98753.94;4804251;29;20087;-83
2020/12/08 10:10:16;;;;;;;2.17;1.60;;;;;;;10.91;67.30;98764.34;4811279;29;20046;-83
2020/12/08 10:12:41;;;;;;;1.92;1.60;;;;;;;10.83;67.29;98757.75;4806002;29;20069;-85
2020/12/08 10:15:07;;;;;;;3.65;1.85;;;;;;;10.82;66.71;98768.75;4814483;29;20038;-83
2020/12/08 10:17:32;;;;;;;2.15;1.67;;;;;;;10.83;66.16;98765.00;4823053;29;20129;-86
2020/12/08 10:19:58;;;;;;;2.75;1.55;;;;;;;10.80;65.79;98770.91;4805679;29;20480;-80
2020/12/08 10:22:23;;;;;;;2.55;2.03;;;;;;;10.77;67.34;98774.16;4800622;29;20042;-84
2020/12/08 10:24:49;;;;;;;2.47;2.28;;;;;;;10.80;68.19;98770.91;4803843;29;20112;-81
2020/12/08 10:27:14;;;;;;;4.53;2.38;;;;;;;10.86;66.72;98767.09;4822366;29;20034;-83
2020/12/08 10:29:40;;;;;;;4.10;2.28;;;;;;;10.86;66.95;98769.75;4818529;29;20480;-85
2020/12/08 10:32:05;;;;;;;2.83;2.10;;;;;;;10.91;66.59;98775.06;4809127;29;20420;-83
2020/12/08 10:34:31;;;;;;;4.38;2.50;;;;;;;10.88;64.94;98773.75;4805805;29;20481;-86
2020/12/08 10:36:57;;;;;;;3.55;2.05;;;;;;;10.88;65.52;98778.31;4805820;29;20050;-86
2020/12/08 10:39:23;;;;;;;4.38;2.70;;;;;;;10.88;66.19;98779.09;4796543;29;20053;-86
2020/12/08 10:41:48;;;;;;;4.03;2.42;;;;;;;10.92;65.94;98781.22;4815150;29;20384;-82
2020/12/08 10:44:16;;;;;;;4.63;2.83;;;;;;;10.95;65.52;98773.41;4805342;29;20065;-79
2020/12/08 10:46:41;;;;;;;4.68;2.33;;;;;;;10.95;64.97;98781.44;4805665;29;20035;-83
2020/12/08 10:49:07;;;;;;;2.55;1.75;;;;;;;10.93;65.72;98770.22;4808945;29;20510;-85
2020/12/08 10:51:32;;;;;;;2.78;1.67;;;;;;;10.97;65.38;98773.13;4809742;29;20070;-85
2020/12/08 10:53:58;;;;;;;3.47;2.20;;;;;;;10.96;66.03;98766.19;4810189;29;20040;-85
2020/12/08 10:56:25;;;;;;;4.68;2.22;;;;;;;10.97;65.51;98768.56;4819291;29;20076;-86
2020/12/08 10:58:53;;;;;;;2.75;2.45;;;;;;;11.02;65.30;98765.03;4805282;29;20034;-85
2020/12/08 11:01:18;;;;;;;2.17;1.88;;;;;;;10.98;64.83;98754.09;4811089;29;20449;-88
2020/12/08 11:03:44;;;;;;;3.20;2.30;;;;;;;11.03;65.42;98759.41;4805868;29;20044;-84
2020/12/08 11:06:10;;;;;;;2.13;1.88;;;;;;;11.02;64.11;98757.81;4815241;29;20498;-86
2020/12/08 11:08:35;;;;;;;3.35;2.53;;;;;;;10.98;63.57;98754.09;4823650;29;20117;-87
2020/12/08 11:11:00;;;;;;;2.70;2.13;;;;;;;10.99;64.65;98752.25;4809560;29;20118;-86
2020/12/08 11:13:26;;;;;;;2.63;2.25;;;;;;;11.01;65.31;98755.41;4805707;29;20443;-86
2020/12/08 11:15:51;;;;;;;2.90;2.00;;;;;;;11.08;65.18;98758.53;4805486;29;20473;-86
2020/12/08 11:18:17;;;;;;;5.60;2.85;;;;;;;11.14;64.86;98756.59;4805534;29;20027;-83
2020/12/08 11:20:43;;;;;;;4.53;2.53;;;;;;;11.21;63.94;98759.72;4804378;29;20038;-84
2020/12/08 11:23:08;;;;;;;3.13;2.15;;;;;;;11.25;64.72;98760.75;4805569;29;20026;-84
2020/12/08 11:25:33;;;;;;;3.65;2.42;;;;;;;11.33;64.27;98754.75;4804899;29;20400;-84
2020/12/08 11:27:59;;;;;;;3.40;2.45;;;;;;;11.37;64.61;98760.34;4805297;29;20519;-84
2020/12/08 11:30:24;;;;;;;5.53;2.85;;;;;;;11.45;65.32;98759.69;4805132;29;20419;-84
2020/12/08 11:32:50;;;;;;;2.90;2.10;;;;;;;11.51;64.73;98757.72;4804935;29;20031;-84
2020/12/08 11:35:15;;;;;;;2.35;2.03;;;;;;;11.62;63.93;98763.75;4805096;29;20038;-83
2020/12/08 11:37:41;;;;;;;4.65;2.65;;;;;;;11.69;62.92;98766.84;4805147;29;20520;-84
2020/12/08 11:40:06;;;;;;;4.15;2.55;;;;;;;11.71;61.83;98762.00;4805420;29;20042;-83
2020/12/08 11:42:32;;;;;;;2.10;1.80;;;;;;;11.77;61.83;98757.38;4805289;29;20078;-84
2020/12/08 11:44:57;;;;;;;3.90;2.40;;;;;;;11.78;61.50;98759.75;4805303;29;20041;-84
2020/12/08 11:47:23;;;;;;;2.85;2.05;;;;;;;11.82;61.84;98760.75;4805486;29;20026;-84
2020/12/08 11:49:49;;;;;;;5.63;2.58;;;;;;;11.81;61.20;98761.84;4805340;29;20066;-85
2020/12/08 11:52:14;;;;;;;3.60;2.58;;;;;;;11.87;61.91;98756.44;4804952;29;20105;-84
2020/12/08 11:54:40;;;;;;;5.30;2.63;;;;;;;11.87;60.99;98756.44;4805169;29;20034;-83
2020/12/08 11:57:06;;;;;;;4.72;3.13;;;;;;;11.85;61.34;98764.75;4805331;29;20104;-84